Αναφορές METAR Αεροδρομίων

 

LGTS - THESSALONIKI - GREECE
Ενημερώθηκε: 12/08/2022 00:20
Αραιές Νεφώσεις
Αραιές Νεφώσεις
 Ανεμος από varies
Ανεμος: varies 6 km/h
Θερμοκρασία: 25°C
Σημείο Δρόσου: 19°C
Υγρασία: 69%
Βαρόμετρο: 1014 hPa
Clouds: Αραιές Νεφώσεις
Visibility: 10 km
Cloud details: Αραιές Νεφώσεις 914 m
2022/08/11 21:20 LGTS 112120Z VRB03KT 9999 FEW030 25/19 Q1014 NOSIG
LGLR - LARTISA - GREECE
Ενημερώθηκε: 11/08/2022 23:50
Μερικώς νεφελώδης
Μερικώς νεφελώδης
 Ανεμος από calm
Ανεμος: Απνοια
Θερμοκρασία: 24°C
Σημείο Δρόσου: 18°C
Υγρασία: 69%
Βαρόμετρο: 1013 hPa
Clouds: Μερικώς νεφελώδης
Visibility: 10 km
Cloud details: Αραιές Νεφώσεις 1219 m
Μερικώς νεφελώδης 2438 m
2022/08/11 20:50 LGLR 112050Z 00000KT 9999 FEW040 SCT080 24/18 Q1013 BLU
 
LGKZ - KOZANI - GREECE
Ενημερώθηκε: 12/08/2022 00:20

 Ανεμος από ΒΔ
Ανεμος: ΒΔ 11 km/h
Θερμοκρασία: 20°C
Σημείο Δρόσου: 12°C
Υγρασία: 60%
Βαρόμετρο: 1017 hPa
2022/08/11 21:20 LGKZ 112120Z AUTO 32006KT 300V010 //// // ////// 20/12 Q1017 RE//
LGKV - KAVALA - GREECE
Ενημερώθηκε: 11/08/2022 22:20
NOT Current
Σχεδόν νεφελώδης
Σχεδόν νεφελώδης
 Ανεμος από ΑΝΑ
Ανεμος: ΑΝΑ 7 km/h
Θερμοκρασία: 25°C
Σημείο Δρόσου: 18°C
Υγρασία: 65%
Βαρόμετρο: 1012 hPa
Clouds: Σχεδόν νεφελώδης
Visibility: 10 km
Cloud details: Αραιές Νεφώσεις 1067 m
Σχεδόν νεφελώδης 2438 m
2022/08/11 19:20 LGKV 111920Z 11004KT 9999 FEW035 BKN080 25/18 Q1012
 
LGIO - IOANNINA - GREECE
Ενημερώθηκε: 12/08/2022 00:20

 Ανεμος από varies
Ανεμος: varies 2 km/h
Θερμοκρασία: 16°C
Σημείο Δρόσου: 16°C
Υγρασία: 100%
Βαρόμετρο: 1016 hPa
2022/08/11 21:20 LGIO 112120Z AUTO VRB01KT //// // ////// 16/16 Q1016 RE//
LGBL - BOLOS - GREECE
Ενημερώθηκε: 11/08/2022 23:50
Αραιές Νεφώσεις
Αραιές Νεφώσεις
 Ανεμος από calm
Ανεμος: Απνοια
Θερμοκρασία: 22°C
Σημείο Δρόσου: 17°C
Υγρασία: 73%
Βαρόμετρο: 1013 hPa
Clouds: Αραιές Νεφώσεις
Visibility: 10 km
Cloud details: Αραιές Νεφώσεις 1219 m
2022/08/11 20:50 LGBL 112050Z 00000KT 9999 FEW040 22/17 Q1013
 
LGMT - MITILINI - GREECE
Ενημερώθηκε: 11/08/2022 23:50
Αραιές Νεφώσεις
Αραιές Νεφώσεις
 Ανεμος από ΒΔ
Ανεμος: ΒΔ 9 km/h
Θερμοκρασία: 25°C
Σημείο Δρόσου: 20°C
Υγρασία: 74%
Βαρόμετρο: 1010 hPa
Clouds: Αραιές Νεφώσεις
Visibility: 10 km
Cloud details: Αραιές Νεφώσεις 610 m
2022/08/11 20:50 LGMT 112050Z 31005KT 9999 FEW020 25/20 Q1010
LGAV - ATHENS - GREECE
Ενημερώθηκε: 12/08/2022 00:20
Αίθριος
Αίθριος
 Ανεμος από ΒΒΑ
Ανεμος: ΒΒΑ 20 km/h
Θερμοκρασία: 27°C
Σημείο Δρόσου: 11°C
Υγρασία: 37%
Βαρόμετρο: 1012 hPa
Περίληψη: Αίθριος
Visibility: greater than 10 km
2022/08/11 21:20 LGAV 112120Z 03011KT CAVOK 27/11 Q1012 NOSIG
 
LGRP - RODOS - GREECE
Ενημερώθηκε: 12/08/2022 00:20
Αραιές Νεφώσεις
Αραιές Νεφώσεις
 Ανεμος από ΝΔ
Ανεμος: ΝΔ 13 km/h
Θερμοκρασία: 28°C
Heat Index: 29°C
Σημείο Δρόσου: 19°C
Υγρασία: 58%
Βαρόμετρο: 1005 hPa
Clouds: Αραιές Νεφώσεις
Visibility: 10 km
Cloud details: Αραιές Νεφώσεις 610 m
2022/08/11 21:20 LGRP 112120Z 23007KT 9999 FEW020 28/19 Q1005 NOSIG
LGIR - HRAKLIO/KRITI - GREECE
Ενημερώθηκε: 12/08/2022 00:20
Αραιές Νεφώσεις
Αραιές Νεφώσεις
 Ανεμος από Δ
Ανεμος: Δ 11 km/h
Θερμοκρασία: 25°C
Σημείο Δρόσου: 19°C
Υγρασία: 69%
Βαρόμετρο: 1011 hPa
Clouds: Αραιές Νεφώσεις
Visibility: 10 km
Cloud details: Αραιές Νεφώσεις 610 m
2022/08/11 21:20 LGIR 112120Z 28006KT 9999 FEW020 25/19 Q1011 NOSIG
 
LGMK - MIKONOS - GREECE
Ενημερώθηκε: 12/08/2022 00:20
Αίθριος
Αίθριος
 Ανεμος από Β
Ανεμος: Β 41 km/h
Θερμοκρασία: 25°C
Σημείο Δρόσου: 17°C
Υγρασία: 61%
Βαρόμετρο: 1009 hPa
Περίληψη: Αίθριος
Visibility: greater than 10 km
2022/08/11 21:20 LGMK 112120Z 36022KT CAVOK 25/17 Q1009
LGKR - KERKIRA - GREECE
Ενημερώθηκε: 12/08/2022 00:20
Αραιές Νεφώσεις
Αραιές Νεφώσεις
 Ανεμος από calm
Ανεμος: Απνοια
Θερμοκρασία: 27°C
Heat Index: 29°C
Σημείο Δρόσου: 21°C
Υγρασία: 70%
Βαρόμετρο: 1010 hPa
Clouds: Αραιές Νεφώσεις
Visibility: 10 km
Cloud details: Αραιές Νεφώσεις 914 m
2022/08/11 21:20 LGKR 112120Z 00000KT 9999 FEW030 27/21 Q1010 NOSIG